sensor_id;sensor_type;location;lat;lon;timestamp;temperature;humidity
71672;DHT22;67659;45.554;11.812;2023-04-25T00:00:08;22.90;74.40
71672;DHT22;67659;45.554;11.812;2023-04-25T00:02:34;22.90;74.20
71672;DHT22;67659;45.554;11.812;2023-04-25T00:05:01;22.90;74.50
71672;DHT22;67659;45.554;11.812;2023-04-25T00:07:27;22.90;74.50
71672;DHT22;67659;45.554;11.812;2023-04-25T00:09:53;22.90;74.40
71672;DHT22;67659;45.554;11.812;2023-04-25T00:12:19;22.90;74.30
71672;DHT22;67659;45.554;11.812;2023-04-25T00:14:45;22.90;74.30
71672;DHT22;67659;45.554;11.812;2023-04-25T00:17:11;22.90;74.40
71672;DHT22;67659;45.554;11.812;2023-04-25T00:19:37;22.90;74.30
71672;DHT22;67659;45.554;11.812;2023-04-25T00:22:03;22.90;74.40
71672;DHT22;67659;45.554;11.812;2023-04-25T00:24:31;22.90;74.30
71672;DHT22;67659;45.554;11.812;2023-04-25T00:26:56;22.90;74.40
71672;DHT22;67659;45.554;11.812;2023-04-25T00:29:22;22.90;74.50
71672;DHT22;67659;45.554;11.812;2023-04-25T00:31:48;22.90;74.40
71672;DHT22;67659;45.554;11.812;2023-04-25T00:34:14;22.90;74.40
71672;DHT22;67659;45.554;11.812;2023-04-25T00:36:39;22.90;74.40
71672;DHT22;67659;45.554;11.812;2023-04-25T00:39:05;22.90;74.40
71672;DHT22;67659;45.554;11.812;2023-04-25T00:41:32;22.90;74.30
71672;DHT22;67659;45.554;11.812;2023-04-25T00:43:59;22.90;74.20
71672;DHT22;67659;45.554;11.812;2023-04-25T00:46:26;22.90;74.40
71672;DHT22;67659;45.554;11.812;2023-04-25T00:48:52;22.80;74.20
71672;DHT22;67659;45.554;11.812;2023-04-25T00:51:20;22.80;74.40
71672;DHT22;67659;45.554;11.812;2023-04-25T00:53:47;22.80;74.40
71672;DHT22;67659;45.554;11.812;2023-04-25T00:56:14;22.80;74.40
71672;DHT22;67659;45.554;11.812;2023-04-25T00:58:41;22.90;74.60
71672;DHT22;67659;45.554;11.812;2023-04-25T01:01:08;22.90;74.40
71672;DHT22;67659;45.554;11.812;2023-04-25T01:03:38;22.90;74.40
71672;DHT22;67659;45.554;11.812;2023-04-25T01:06:10;22.80;74.30
71672;DHT22;67659;45.554;11.812;2023-04-25T01:08:37;22.90;74.60
71672;DHT22;67659;45.554;11.812;2023-04-25T01:11:04;22.80;74.50
71672;DHT22;67659;45.554;11.812;2023-04-25T01:13:30;22.80;74.30
71672;DHT22;67659;45.554;11.812;2023-04-25T01:15:58;22.80;74.40
71672;DHT22;67659;45.554;11.812;2023-04-25T01:18:24;22.80;74.40
71672;DHT22;67659;45.554;11.812;2023-04-25T01:20:51;22.90;74.40
71672;DHT22;67659;45.554;11.812;2023-04-25T01:23:19;22.80;74.40
71672;DHT22;67659;45.554;11.812;2023-04-25T01:25:45;22.80;74.50
71672;DHT22;67659;45.554;11.812;2023-04-25T01:28:12;22.80;74.20
71672;DHT22;67659;45.554;11.812;2023-04-25T01:30:39;22.80;74.50
71672;DHT22;67659;45.554;11.812;2023-04-25T01:33:05;22.80;74.40
71672;DHT22;67659;45.554;11.812;2023-04-25T01:35:33;22.80;74.50
71672;DHT22;67659;45.554;11.812;2023-04-25T01:37:59;22.80;74.50
71672;DHT22;67659;45.554;11.812;2023-04-25T01:40:25;22.80;74.40
71672;DHT22;67659;45.554;11.812;2023-04-25T01:42:52;22.80;74.40
71672;DHT22;67659;45.554;11.812;2023-04-25T01:45:18;22.80;74.90
71672;DHT22;67659;45.554;11.812;2023-04-25T01:47:44;22.90;74.70
71672;DHT22;67659;45.554;11.812;2023-04-25T01:50:15;22.80;74.40
71672;DHT22;67659;45.554;11.812;2023-04-25T01:52:41;22.80;74.40
71672;DHT22;67659;45.554;11.812;2023-04-25T01:55:07;22.80;74.60
71672;DHT22;67659;45.554;11.812;2023-04-25T01:57:33;22.80;74.60
71672;DHT22;67659;45.554;11.812;2023-04-25T02:00:02;22.90;74.50
71672;DHT22;67659;45.554;11.812;2023-04-25T02:02:28;22.90;74.70
71672;DHT22;67659;45.554;11.812;2023-04-25T02:04:54;22.80;74.70
71672;DHT22;67659;45.554;11.812;2023-04-25T02:07:21;22.80;74.60
71672;DHT22;67659;45.554;11.812;2023-04-25T02:09:47;22.80;74.50
71672;DHT22;67659;45.554;11.812;2023-04-25T02:12:13;22.80;74.60
71672;DHT22;67659;45.554;11.812;2023-04-25T02:14:39;22.80;74.50
71672;DHT22;67659;45.554;11.812;2023-04-25T02:17:05;22.80;74.70
71672;DHT22;67659;45.554;11.812;2023-04-25T02:19:31;22.70;74.70
71672;DHT22;67659;45.554;11.812;2023-04-25T02:21:57;22.70;74.60
71672;DHT22;67659;45.554;11.812;2023-04-25T02:24:23;22.70;74.80
71672;DHT22;67659;45.554;11.812;2023-04-25T02:26:49;22.80;74.40
71672;DHT22;67659;45.554;11.812;2023-04-25T02:29:16;22.70;74.70
71672;DHT22;67659;45.554;11.812;2023-04-25T02:31:42;22.80;74.60
71672;DHT22;67659;45.554;11.812;2023-04-25T02:34:08;22.80;74.50
71672;DHT22;67659;45.554;11.812;2023-04-25T02:36:34;22.70;74.70
71672;DHT22;67659;45.554;11.812;2023-04-25T02:39:01;22.80;74.70
71672;DHT22;67659;45.554;11.812;2023-04-25T02:41:28;22.80;74.60
71672;DHT22;67659;45.554;11.812;2023-04-25T02:43:54;22.80;74.70
71672;DHT22;67659;45.554;11.812;2023-04-25T02:46:20;22.70;74.70
71672;DHT22;67659;45.554;11.812;2023-04-25T02:48:46;22.70;74.80
71672;DHT22;67659;45.554;11.812;2023-04-25T02:51:12;22.70;74.50
71672;DHT22;67659;45.554;11.812;2023-04-25T02:53:38;22.70;74.90
71672;DHT22;67659;45.554;11.812;2023-04-25T02:56:04;22.80;74.80
71672;DHT22;67659;45.554;11.812;2023-04-25T02:58:30;22.70;74.90
71672;DHT22;67659;45.554;11.812;2023-04-25T03:00:56;22.70;74.60
71672;DHT22;67659;45.554;11.812;2023-04-25T03:03:22;22.70;74.70
71672;DHT22;67659;45.554;11.812;2023-04-25T03:05:49;22.70;74.70
71672;DHT22;67659;45.554;11.812;2023-04-25T03:08:16;22.80;74.80
71672;DHT22;67659;45.554;11.812;2023-04-25T03:10:42;22.70;74.70
71672;DHT22;67659;45.554;11.812;2023-04-25T03:13:08;22.80;74.60
71672;DHT22;67659;45.554;11.812;2023-04-25T03:15:35;22.70;74.80
71672;DHT22;67659;45.554;11.812;2023-04-25T03:18:01;22.80;75.00
71672;DHT22;67659;45.554;11.812;2023-04-25T03:20:27;22.80;74.60
71672;DHT22;67659;45.554;11.812;2023-04-25T03:22:53;22.70;74.60
71672;DHT22;67659;45.554;11.812;2023-04-25T03:25:19;22.80;74.60
71672;DHT22;67659;45.554;11.812;2023-04-25T03:27:44;22.70;74.70
71672;DHT22;67659;45.554;11.812;2023-04-25T03:30:11;22.70;74.60
71672;DHT22;67659;45.554;11.812;2023-04-25T03:32:37;22.70;75.00
71672;DHT22;67659;45.554;11.812;2023-04-25T03:35:03;22.70;74.60
71672;DHT22;67659;45.554;11.812;2023-04-25T03:37:29;22.70;74.70
71672;DHT22;67659;45.554;11.812;2023-04-25T03:39:55;22.70;74.70
71672;DHT22;67659;45.554;11.812;2023-04-25T03:42:21;22.70;74.70
71672;DHT22;67659;45.554;11.812;2023-04-25T03:44:49;22.70;74.60
71672;DHT22;67659;45.554;11.812;2023-04-25T03:47:15;22.70;74.60
71672;DHT22;67659;45.554;11.812;2023-04-25T03:49:42;22.70;74.50
71672;DHT22;67659;45.554;11.812;2023-04-25T03:52:07;22.70;74.70
71672;DHT22;67659;45.554;11.812;2023-04-25T03:54:33;22.70;74.60
71672;DHT22;67659;45.554;11.812;2023-04-25T03:57:00;22.80;74.80
71672;DHT22;67659;45.554;11.812;2023-04-25T03:59:25;22.70;74.60
71672;DHT22;67659;45.554;11.812;2023-04-25T04:01:52;22.70;74.80
71672;DHT22;67659;45.554;11.812;2023-04-25T04:04:18;22.70;74.90
71672;DHT22;67659;45.554;11.812;2023-04-25T04:06:44;22.70;74.70
71672;DHT22;67659;45.554;11.812;2023-04-25T04:09:10;22.70;74.50
71672;DHT22;67659;45.554;11.812;2023-04-25T04:11:38;22.60;74.90
71672;DHT22;67659;45.554;11.812;2023-04-25T04:14:06;22.60;74.90
71672;DHT22;67659;45.554;11.812;2023-04-25T04:16:32;22.70;74.80
71672;DHT22;67659;45.554;11.812;2023-04-25T04:18:58;22.70;74.50
71672;DHT22;67659;45.554;11.812;2023-04-25T04:21:24;22.70;74.70
71672;DHT22;67659;45.554;11.812;2023-04-25T04:23:52;22.70;74.80
71672;DHT22;67659;45.554;11.812;2023-04-25T04:26:17;22.70;74.80
71672;DHT22;67659;45.554;11.812;2023-04-25T04:28:43;22.70;74.90
71672;DHT22;67659;45.554;11.812;2023-04-25T04:31:10;22.70;74.80
71672;DHT22;67659;45.554;11.812;2023-04-25T04:33:36;22.60;74.80
71672;DHT22;67659;45.554;11.812;2023-04-25T04:36:03;22.60;74.90
71672;DHT22;67659;45.554;11.812;2023-04-25T04:38:30;22.60;74.90
71672;DHT22;67659;45.554;11.812;2023-04-25T04:40:55;22.60;74.90
71672;DHT22;67659;45.554;11.812;2023-04-25T04:43:21;22.70;74.90
71672;DHT22;67659;45.554;11.812;2023-04-25T04:45:49;22.60;74.80
71672;DHT22;67659;45.554;11.812;2023-04-25T04:48:16;22.60;74.90
71672;DHT22;67659;45.554;11.812;2023-04-25T04:50:43;22.60;74.90
71672;DHT22;67659;45.554;11.812;2023-04-25T04:53:11;22.60;74.70
71672;DHT22;67659;45.554;11.812;2023-04-25T04:55:37;22.60;74.80
71672;DHT22;67659;45.554;11.812;2023-04-25T04:58:03;22.70;74.90
71672;DHT22;67659;45.554;11.812;2023-04-25T05:00:29;22.60;75.10
71672;DHT22;67659;45.554;11.812;2023-04-25T05:02:55;22.70;74.90
71672;DHT22;67659;45.554;11.812;2023-04-25T05:05:21;22.70;74.80
71672;DHT22;67659;45.554;11.812;2023-04-25T05:07:47;22.70;74.90
71672;DHT22;67659;45.554;11.812;2023-04-25T05:10:13;22.60;74.90
71672;DHT22;67659;45.554;11.812;2023-04-25T05:12:39;22.60;74.80
71672;DHT22;67659;45.554;11.812;2023-04-25T05:15:05;22.60;75.00
71672;DHT22;67659;45.554;11.812;2023-04-25T05:17:31;22.60;74.70
71672;DHT22;67659;45.554;11.812;2023-04-25T05:19:58;22.60;75.10
71672;DHT22;67659;45.554;11.812;2023-04-25T05:22:24;22.60;74.90
71672;DHT22;67659;45.554;11.812;2023-04-25T05:24:50;22.60;74.90
71672;DHT22;67659;45.554;11.812;2023-04-25T05:27:18;22.60;74.80
71672;DHT22;67659;45.554;11.812;2023-04-25T05:29:44;22.60;75.10
71672;DHT22;67659;45.554;11.812;2023-04-25T05:32:10;22.60;74.90
71672;DHT22;67659;45.554;11.812;2023-04-25T05:34:36;22.70;74.70
71672;DHT22;67659;45.554;11.812;2023-04-25T05:37:02;22.60;74.90
71672;DHT22;67659;45.554;11.812;2023-04-25T05:39:28;22.60;75.00
71672;DHT22;67659;45.554;11.812;2023-04-25T05:41:55;22.60;74.90
71672;DHT22;67659;45.554;11.812;2023-04-25T05:44:21;22.60;75.10
71672;DHT22;67659;45.554;11.812;2023-04-25T05:46:47;22.60;75.20
71672;DHT22;67659;45.554;11.812;2023-04-25T05:49:12;22.60;74.90
71672;DHT22;67659;45.554;11.812;2023-04-25T05:51:38;22.60;75.00
71672;DHT22;67659;45.554;11.812;2023-04-25T05:54:04;22.60;75.00
71672;DHT22;67659;45.554;11.812;2023-04-25T05:56:30;22.60;75.10
71672;DHT22;67659;45.554;11.812;2023-04-25T05:58:56;22.60;75.00
71672;DHT22;67659;45.554;11.812;2023-04-25T06:01:22;22.60;75.10
71672;DHT22;67659;45.554;11.812;2023-04-25T06:03:49;22.60;75.00
71672;DHT22;67659;45.554;11.812;2023-04-25T06:06:15;22.60;74.80
71672;DHT22;67659;45.554;11.812;2023-04-25T06:08:41;22.60;75.10
71672;DHT22;67659;45.554;11.812;2023-04-25T06:11:07;22.70;75.30
71672;DHT22;67659;45.554;11.812;2023-04-25T06:13:33;22.60;75.30
71672;DHT22;67659;45.554;11.812;2023-04-25T06:15:59;22.60;75.30
71672;DHT22;67659;45.554;11.812;2023-04-25T06:18:24;22.60;75.30
71672;DHT22;67659;45.554;11.812;2023-04-25T06:20:50;22.70;75.40
71672;DHT22;67659;45.554;11.812;2023-04-25T06:23:16;22.60;75.30
71672;DHT22;67659;45.554;11.812;2023-04-25T06:25:42;22.60;75.30
71672;DHT22;67659;45.554;11.812;2023-04-25T06:28:08;22.70;75.50
71672;DHT22;67659;45.554;11.812;2023-04-25T06:30:33;22.60;75.50
71672;DHT22;67659;45.554;11.812;2023-04-25T06:32:59;22.70;75.80
71672;DHT22;67659;45.554;11.812;2023-04-25T06:35:25;22.70;75.80
71672;DHT22;67659;45.554;11.812;2023-04-25T06:37:51;22.70;75.70
71672;DHT22;67659;45.554;11.812;2023-04-25T06:40:17;22.60;75.90
71672;DHT22;67659;45.554;11.812;2023-04-25T06:42:43;22.60;75.70
71672;DHT22;67659;45.554;11.812;2023-04-25T06:45:09;22.60;75.50
71672;DHT22;67659;45.554;11.812;2023-04-25T06:47:35;22.70;75.80
71672;DHT22;67659;45.554;11.812;2023-04-25T06:50:01;22.70;75.90
71672;DHT22;67659;45.554;11.812;2023-04-25T06:52:27;22.60;76.00
71672;DHT22;67659;45.554;11.812;2023-04-25T06:54:53;22.60;75.90
71672;DHT22;67659;45.554;11.812;2023-04-25T06:57:18;22.60;76.40
71672;DHT22;67659;45.554;11.812;2023-04-25T06:59:44;22.70;76.00
71672;DHT22;67659;45.554;11.812;2023-04-25T07:02:10;22.60;76.10
71672;DHT22;67659;45.554;11.812;2023-04-25T07:04:36;22.70;76.10
71672;DHT22;67659;45.554;11.812;2023-04-25T07:07:02;22.70;76.20
71672;DHT22;67659;45.554;11.812;2023-04-25T07:09:31;22.60;76.10
71672;DHT22;67659;45.554;11.812;2023-04-25T07:11:59;22.60;76.10
71672;DHT22;67659;45.554;11.812;2023-04-25T07:14:27;22.70;76.30
71672;DHT22;67659;45.554;11.812;2023-04-25T07:16:53;22.60;76.20
71672;DHT22;67659;45.554;11.812;2023-04-25T07:19:21;22.60;76.40
71672;DHT22;67659;45.554;11.812;2023-04-25T07:21:47;22.60;76.20
71672;DHT22;67659;45.554;11.812;2023-04-25T07:24:13;22.70;76.10
71672;DHT22;67659;45.554;11.812;2023-04-25T07:26:38;22.70;76.30
71672;DHT22;67659;45.554;11.812;2023-04-25T07:29:04;22.60;76.10
71672;DHT22;67659;45.554;11.812;2023-04-25T07:31:30;22.60;76.20
71672;DHT22;67659;45.554;11.812;2023-04-25T07:33:56;22.60;76.20
71672;DHT22;67659;45.554;11.812;2023-04-25T07:36:22;22.50;76.30
71672;DHT22;67659;45.554;11.812;2023-04-25T07:38:48;22.60;76.10
71672;DHT22;67659;45.554;11.812;2023-04-25T07:41:13;22.60;76.10
71672;DHT22;67659;45.554;11.812;2023-04-25T07:43:39;22.60;76.30
71672;DHT22;67659;45.554;11.812;2023-04-25T07:46:05;22.60;76.20
71672;DHT22;67659;45.554;11.812;2023-04-25T07:48:31;22.60;76.10
71672;DHT22;67659;45.554;11.812;2023-04-25T07:50:57;22.60;76.20
71672;DHT22;67659;45.554;11.812;2023-04-25T07:53:23;22.60;76.10
71672;DHT22;67659;45.554;11.812;2023-04-25T07:55:50;22.50;76.30
71672;DHT22;67659;45.554;11.812;2023-04-25T07:58:16;22.50;76.10
71672;DHT22;67659;45.554;11.812;2023-04-25T08:00:46;22.60;76.10
71672;DHT22;67659;45.554;11.812;2023-04-25T08:03:12;22.70;76.30
71672;DHT22;67659;45.554;11.812;2023-04-25T08:05:38;22.50;76.60
71672;DHT22;67659;45.554;11.812;2023-04-25T08:08:04;22.60;76.70
71672;DHT22;67659;45.554;11.812;2023-04-25T08:10:32;22.60;76.40
71672;DHT22;67659;45.554;11.812;2023-04-25T08:12:58;22.60;76.60
71672;DHT22;67659;45.554;11.812;2023-04-25T08:15:24;22.50;76.70
71672;DHT22;67659;45.554;11.812;2023-04-25T08:17:51;22.60;76.90
71672;DHT22;67659;45.554;11.812;2023-04-25T08:20:17;22.60;76.60
71672;DHT22;67659;45.554;11.812;2023-04-25T08:22:43;22.50;76.60
71672;DHT22;67659;45.554;11.812;2023-04-25T08:25:09;22.50;76.50
71672;DHT22;67659;45.554;11.812;2023-04-25T08:27:35;22.60;76.70
71672;DHT22;67659;45.554;11.812;2023-04-25T08:30:03;22.70;76.70
71672;DHT22;67659;45.554;11.812;2023-04-25T08:32:29;22.70;76.60
71672;DHT22;67659;45.554;11.812;2023-04-25T08:34:55;22.60;76.90
71672;DHT22;67659;45.554;11.812;2023-04-25T08:37:21;22.70;76.80
71672;DHT22;67659;45.554;11.812;2023-04-25T08:39:47;22.70;76.70
71672;DHT22;67659;45.554;11.812;2023-04-25T08:42:15;22.80;76.70
71672;DHT22;67659;45.554;11.812;2023-04-25T08:44:41;22.90;76.80
71672;DHT22;67659;45.554;11.812;2023-04-25T08:47:07;22.90;76.70
71672;DHT22;67659;45.554;11.812;2023-04-25T08:49:33;23.00;76.50
71672;DHT22;67659;45.554;11.812;2023-04-25T08:52:01;23.00;76.70
71672;DHT22;67659;45.554;11.812;2023-04-25T08:54:31;23.00;76.60
71672;DHT22;67659;45.554;11.812;2023-04-25T08:56:57;23.00;76.40
71672;DHT22;67659;45.554;11.812;2023-04-25T08:59:28;23.10;76.40
71672;DHT22;67659;45.554;11.812;2023-04-25T09:01:55;23.20;76.50
71672;DHT22;67659;45.554;11.812;2023-04-25T09:04:21;23.20;76.20
71672;DHT22;67659;45.554;11.812;2023-04-25T09:06:49;23.30;76.40
71672;DHT22;67659;45.554;11.812;2023-04-25T09:09:15;23.40;76.30
71672;DHT22;67659;45.554;11.812;2023-04-25T09:11:41;23.50;76.50
71672;DHT22;67659;45.554;11.812;2023-04-25T09:14:12;23.50;76.10
71672;DHT22;67659;45.554;11.812;2023-04-25T09:17:00;23.70;75.30
71672;DHT22;67659;45.554;11.812;2023-04-25T09:19:29;23.80;75.10
71672;DHT22;67659;45.554;11.812;2023-04-25T09:22:00;23.90;75.10
71672;DHT22;67659;45.554;11.812;2023-04-25T09:27:10;24.10;74.90
71672;DHT22;67659;45.554;11.812;2023-04-25T09:29:38;24.20;74.50
71672;DHT22;67659;45.554;11.812;2023-04-25T09:32:20;24.30;74.50
71672;DHT22;67659;45.554;11.812;2023-04-25T09:34:48;24.40;74.30
71672;DHT22;67659;45.554;11.812;2023-04-25T09:37:27;24.40;74.30
71672;DHT22;67659;45.554;11.812;2023-04-25T09:39:58;24.60;74.20
71672;DHT22;67659;45.554;11.812;2023-04-25T09:42:26;24.70;74.40
71672;DHT22;67659;45.554;11.812;2023-04-25T09:44:54;24.80;74.20
71672;DHT22;67659;45.554;11.812;2023-04-25T09:47:23;24.90;74.00
71672;DHT22;67659;45.554;11.812;2023-04-25T09:49:49;25.00;74.20
71672;DHT22;67659;45.554;11.812;2023-04-25T09:52:17;25.10;73.90
71672;DHT22;67659;45.554;11.812;2023-04-25T09:54:45;25.10;73.80
71672;DHT22;67659;45.554;11.812;2023-04-25T09:57:15;25.20;73.60
71672;DHT22;67659;45.554;11.812;2023-04-25T09:59:52;25.30;73.50
71672;DHT22;67659;45.554;11.812;2023-04-25T10:02:21;25.30;73.30
71672;DHT22;67659;45.554;11.812;2023-04-25T10:04:49;25.30;73.20
71672;DHT22;67659;45.554;11.812;2023-04-25T10:07:18;25.40;73.10
71672;DHT22;67659;45.554;11.812;2023-04-25T10:09:48;25.40;73.10
71672;DHT22;67659;45.554;11.812;2023-04-25T10:12:16;25.40;73.00
71672;DHT22;67659;45.554;11.812;2023-04-25T10:14:42;25.40;72.60
71672;DHT22;67659;45.554;11.812;2023-04-25T10:17:10;25.50;73.00
71672;DHT22;67659;45.554;11.812;2023-04-25T10:19:37;25.50;72.90
71672;DHT22;67659;45.554;11.812;2023-04-25T10:22:08;25.50;72.80
71672;DHT22;67659;45.554;11.812;2023-04-25T10:24:38;25.50;72.90
71672;DHT22;67659;45.554;11.812;2023-04-25T10:27:05;25.50;72.70
71672;DHT22;67659;45.554;11.812;2023-04-25T10:29:32;25.60;72.70
71672;DHT22;67659;45.554;11.812;2023-04-25T10:31:58;25.60;72.60
71672;DHT22;67659;45.554;11.812;2023-04-25T10:37:01;25.70;72.40
71672;DHT22;67659;45.554;11.812;2023-04-25T10:39:29;25.80;72.60
71672;DHT22;67659;45.554;11.812;2023-04-25T10:41:57;25.70;72.20
71672;DHT22;67659;45.554;11.812;2023-04-25T10:44:29;25.80;72.30
71672;DHT22;67659;45.554;11.812;2023-04-25T10:46:56;25.80;72.10
71672;DHT22;67659;45.554;11.812;2023-04-25T10:49:35;25.90;72.10
71672;DHT22;67659;45.554;11.812;2023-04-25T10:52:15;26.00;72.00
71672;DHT22;67659;45.554;11.812;2023-04-25T10:54:43;26.00;71.80
71672;DHT22;67659;45.554;11.812;2023-04-25T10:57:29;26.00;71.90
71672;DHT22;67659;45.554;11.812;2023-04-25T11:00:13;26.00;71.80
71672;DHT22;67659;45.554;11.812;2023-04-25T11:05:29;26.00;71.60
71672;DHT22;67659;45.554;11.812;2023-04-25T11:07:56;26.00;71.60
71672;DHT22;67659;45.554;11.812;2023-04-25T11:10:28;26.00;71.80
71672;DHT22;67659;45.554;11.812;2023-04-25T11:12:55;26.10;71.30
71672;DHT22;67659;45.554;11.812;2023-04-25T11:15:23;26.00;71.40
71672;DHT22;67659;45.554;11.812;2023-04-25T11:17:54;26.00;71.30
71672;DHT22;67659;45.554;11.812;2023-04-25T11:20:21;26.00;71.50
71672;DHT22;67659;45.554;11.812;2023-04-25T11:22:51;26.00;71.30
71672;DHT22;67659;45.554;11.812;2023-04-25T11:25:17;26.00;71.10
71672;DHT22;67659;45.554;11.812;2023-04-25T11:27:53;26.00;71.20
71672;DHT22;67659;45.554;11.812;2023-04-25T11:30:21;26.00;70.60
71672;DHT22;67659;45.554;11.812;2023-04-25T11:32:47;26.00;70.90
71672;DHT22;67659;45.554;11.812;2023-04-25T11:35:14;26.00;71.00
71672;DHT22;67659;45.554;11.812;2023-04-25T11:37:41;26.10;70.50
71672;DHT22;67659;45.554;11.812;2023-04-25T11:40:08;26.00;70.80
71672;DHT22;67659;45.554;11.812;2023-04-25T11:42:38;26.00;70.30
71672;DHT22;67659;45.554;11.812;2023-04-25T11:45:05;26.00;70.50
71672;DHT22;67659;45.554;11.812;2023-04-25T11:47:35;26.00;69.80
71672;DHT22;67659;45.554;11.812;2023-04-25T11:50:02;26.10;70.40
71672;DHT22;67659;45.554;11.812;2023-04-25T11:52:38;26.00;70.40
71672;DHT22;67659;45.554;11.812;2023-04-25T11:55:06;26.00;70.30
71672;DHT22;67659;45.554;11.812;2023-04-25T11:57:32;26.00;69.90
71672;DHT22;67659;45.554;11.812;2023-04-25T12:00:08;26.00;69.90
71672;DHT22;67659;45.554;11.812;2023-04-25T12:02:37;26.10;69.50
71672;DHT22;67659;45.554;11.812;2023-04-25T12:05:07;26.00;69.90
71672;DHT22;67659;45.554;11.812;2023-04-25T12:07:34;26.00;70.10
71672;DHT22;67659;45.554;11.812;2023-04-25T12:10:05;26.00;69.60
71672;DHT22;67659;45.554;11.812;2023-04-25T12:12:34;26.00;70.10
71672;DHT22;67659;45.554;11.812;2023-04-25T12:15:12;25.90;70.20
71672;DHT22;67659;45.554;11.812;2023-04-25T12:17:42;26.00;69.50
71672;DHT22;67659;45.554;11.812;2023-04-25T12:20:11;26.00;70.00
71672;DHT22;67659;45.554;11.812;2023-04-25T12:22:39;25.90;69.60
71672;DHT22;67659;45.554;11.812;2023-04-25T12:25:06;26.00;69.90
71672;DHT22;67659;45.554;11.812;2023-04-25T12:27:33;26.00;70.10
71672;DHT22;67659;45.554;11.812;2023-04-25T12:29:59;25.90;69.60
71672;DHT22;67659;45.554;11.812;2023-04-25T12:32:25;25.90;69.80
71672;DHT22;67659;45.554;11.812;2023-04-25T12:34:52;25.90;69.60
71672;DHT22;67659;45.554;11.812;2023-04-25T12:37:18;25.90;70.10
71672;DHT22;67659;45.554;11.812;2023-04-25T12:39:44;26.00;69.60
71672;DHT22;67659;45.554;11.812;2023-04-25T12:42:10;26.00;69.70
71672;DHT22;67659;45.554;11.812;2023-04-25T12:44:38;25.90;69.80
71672;DHT22;67659;45.554;11.812;2023-04-25T12:47:04;26.00;69.60
71672;DHT22;67659;45.554;11.812;2023-04-25T12:49:31;25.90;69.60
71672;DHT22;67659;45.554;11.812;2023-04-25T12:51:57;26.00;70.10
71672;DHT22;67659;45.554;11.812;2023-04-25T12:54:24;25.90;69.30
71672;DHT22;67659;45.554;11.812;2023-04-25T12:56:51;25.90;69.60
71672;DHT22;67659;45.554;11.812;2023-04-25T12:59:18;26.00;69.90
71672;DHT22;67659;45.554;11.812;2023-04-25T13:01:46;25.90;69.50
71672;DHT22;67659;45.554;11.812;2023-04-25T13:04:12;25.90;69.50
71672;DHT22;67659;45.554;11.812;2023-04-25T13:06:38;25.80;69.80
71672;DHT22;67659;45.554;11.812;2023-04-25T13:09:04;25.80;69.50
71672;DHT22;67659;45.554;11.812;2023-04-25T13:11:30;25.80;69.70
71672;DHT22;67659;45.554;11.812;2023-04-25T13:13:56;25.80;69.40
71672;DHT22;67659;45.554;11.812;2023-04-25T13:16:22;25.90;69.10
71672;DHT22;67659;45.554;11.812;2023-04-25T13:18:50;25.80;69.40
71672;DHT22;67659;45.554;11.812;2023-04-25T13:21:16;25.80;69.60
71672;DHT22;67659;45.554;11.812;2023-04-25T13:23:42;25.80;69.50
71672;DHT22;67659;45.554;11.812;2023-04-25T13:26:10;25.80;69.80
71672;DHT22;67659;45.554;11.812;2023-04-25T13:28:36;25.70;69.80
71672;DHT22;67659;45.554;11.812;2023-04-25T13:31:02;25.70;69.50
71672;DHT22;67659;45.554;11.812;2023-04-25T13:33:28;25.70;69.30
71672;DHT22;67659;45.554;11.812;2023-04-25T13:35:54;25.70;69.70
71672;DHT22;67659;45.554;11.812;2023-04-25T13:38:22;25.60;69.90
71672;DHT22;67659;45.554;11.812;2023-04-25T13:40:49;25.60;69.70
71672;DHT22;67659;45.554;11.812;2023-04-25T13:43:19;25.60;69.70
71672;DHT22;67659;45.554;11.812;2023-04-25T13:45:46;25.60;70.10
71672;DHT22;67659;45.554;11.812;2023-04-25T13:48:12;25.50;69.50
71672;DHT22;67659;45.554;11.812;2023-04-25T13:50:38;25.50;70.10
71672;DHT22;67659;45.554;11.812;2023-04-25T13:53:04;25.60;69.80
71672;DHT22;67659;45.554;11.812;2023-04-25T13:55:31;25.50;69.70
71672;DHT22;67659;45.554;11.812;2023-04-25T13:57:57;25.50;70.00
71672;DHT22;67659;45.554;11.812;2023-04-25T14:00:25;25.50;69.80
71672;DHT22;67659;45.554;11.812;2023-04-25T14:02:51;25.50;69.70
71672;DHT22;67659;45.554;11.812;2023-04-25T14:05:38;25.40;69.80
71672;DHT22;67659;45.554;11.812;2023-04-25T14:08:06;25.30;70.20
71672;DHT22;67659;45.554;11.812;2023-04-25T14:10:32;25.40;69.70
71672;DHT22;67659;45.554;11.812;2023-04-25T14:12:58;25.30;69.80
71672;DHT22;67659;45.554;11.812;2023-04-25T14:15:24;25.30;70.60
71672;DHT22;67659;45.554;11.812;2023-04-25T14:17:51;25.30;70.60
71672;DHT22;67659;45.554;11.812;2023-04-25T14:20:19;25.40;70.10
71672;DHT22;67659;45.554;11.812;2023-04-25T14:22:47;25.30;70.20
71672;DHT22;67659;45.554;11.812;2023-04-25T14:25:16;25.30;70.20
71672;DHT22;67659;45.554;11.812;2023-04-25T14:27:41;25.30;70.10
71672;DHT22;67659;45.554;11.812;2023-04-25T14:30:08;25.30;69.90
71672;DHT22;67659;45.554;11.812;2023-04-25T14:32:35;25.30;70.20
71672;DHT22;67659;45.554;11.812;2023-04-25T14:35:01;25.30;70.00
71672;DHT22;67659;45.554;11.812;2023-04-25T14:37:27;25.40;70.30
71672;DHT22;67659;45.554;11.812;2023-04-25T14:39:53;25.30;70.30
71672;DHT22;67659;45.554;11.812;2023-04-25T14:42:19;25.30;70.00
71672;DHT22;67659;45.554;11.812;2023-04-25T14:44:45;25.30;70.40
71672;DHT22;67659;45.554;11.812;2023-04-25T14:47:11;25.30;70.20
71672;DHT22;67659;45.554;11.812;2023-04-25T14:49:36;25.30;70.30
71672;DHT22;67659;45.554;11.812;2023-04-25T14:52:02;25.20;70.10
71672;DHT22;67659;45.554;11.812;2023-04-25T14:54:32;25.30;70.00
71672;DHT22;67659;45.554;11.812;2023-04-25T14:56:58;25.40;70.80
71672;DHT22;67659;45.554;11.812;2023-04-25T14:59:24;25.40;70.70
71672;DHT22;67659;45.554;11.812;2023-04-25T15:01:50;25.40;70.70
71672;DHT22;67659;45.554;11.812;2023-04-25T15:04:17;25.40;70.60
71672;DHT22;67659;45.554;11.812;2023-04-25T15:06:43;25.40;70.60
71672;DHT22;67659;45.554;11.812;2023-04-25T15:09:09;25.50;70.60
71672;DHT22;67659;45.554;11.812;2023-04-25T15:11:38;25.50;70.10
71672;DHT22;67659;45.554;11.812;2023-04-25T15:14:05;25.50;70.20
71672;DHT22;67659;45.554;11.812;2023-04-25T15:16:34;25.40;70.40
71672;DHT22;67659;45.554;11.812;2023-04-25T15:18:59;25.50;70.30
71672;DHT22;67659;45.554;11.812;2023-04-25T15:21:30;25.50;70.30